sensor_id;sensor_type;location;lat;lon;timestamp;pressure;altitude;pressure_sealevel;temperature;humidity
49178;BME280;35016;55.674;37.468;2023-07-13T00:01:45;98141.25;;;12.90;60.66
49178;BME280;35016;55.674;37.468;2023-07-13T00:04:16;98151.81;;;12.92;60.80
49178;BME280;35016;55.674;37.468;2023-07-13T00:06:44;98148.63;;;12.90;60.52
49178;BME280;35016;55.674;37.468;2023-07-13T00:09:15;98153.56;;;12.88;60.93
49178;BME280;35016;55.674;37.468;2023-07-13T00:11:43;98155.47;;;12.87;60.94
49178;BME280;35016;55.674;37.468;2023-07-13T00:14:10;98147.94;;;12.84;60.73
49178;BME280;35016;55.674;37.468;2023-07-13T00:16:38;98152.06;;;12.82;60.98
49178;BME280;35016;55.674;37.468;2023-07-13T00:19:06;98156.53;;;12.78;60.95
49178;BME280;35016;55.674;37.468;2023-07-13T00:21:33;98156.03;;;12.76;60.94
49178;BME280;35016;55.674;37.468;2023-07-13T00:24:00;98155.53;;;12.74;61.18
49178;BME280;35016;55.674;37.468;2023-07-13T00:26:27;98159.63;;;12.71;61.50
49178;BME280;35016;55.674;37.468;2023-07-13T00:28:54;98161.38;;;12.67;61.21
49178;BME280;35016;55.674;37.468;2023-07-13T00:31:21;98155.72;;;12.63;61.48
49178;BME280;35016;55.674;37.468;2023-07-13T00:33:48;98152.50;;;12.61;61.29
49178;BME280;35016;55.674;37.468;2023-07-13T00:36:16;98161.28;;;12.58;61.71
49178;BME280;35016;55.674;37.468;2023-07-13T00:38:43;98148.31;;;12.55;61.27
49178;BME280;35016;55.674;37.468;2023-07-13T00:41:10;98150.53;;;12.53;61.22
49178;BME280;35016;55.674;37.468;2023-07-13T00:43:37;98146.19;;;12.52;61.58
49178;BME280;35016;55.674;37.468;2023-07-13T00:46:12;98147.31;;;12.51;61.51
49178;BME280;35016;55.674;37.468;2023-07-13T00:48:40;98151.13;;;12.50;61.56
49178;BME280;35016;55.674;37.468;2023-07-13T00:51:08;98158.50;;;12.50;61.28
49178;BME280;35016;55.674;37.468;2023-07-13T00:53:36;98156.06;;;12.48;61.67
49178;BME280;35016;55.674;37.468;2023-07-13T00:56:03;98155.28;;;12.48;61.83
49178;BME280;35016;55.674;37.468;2023-07-13T00:58:30;98159.09;;;12.47;61.65
49178;BME280;35016;55.674;37.468;2023-07-13T01:00:57;98163.75;;;12.46;61.79
49178;BME280;35016;55.674;37.468;2023-07-13T01:03:24;98156.38;;;12.47;61.73
49178;BME280;35016;55.674;37.468;2023-07-13T01:05:53;98155.09;;;12.44;61.86
49178;BME280;35016;55.674;37.468;2023-07-13T01:08:21;98157.81;;;12.44;61.94
49178;BME280;35016;55.674;37.468;2023-07-13T01:10:54;98148.00;;;12.43;61.90
49178;BME280;35016;55.674;37.468;2023-07-13T01:13:22;98148.00;;;12.43;62.09
49178;BME280;35016;55.674;37.468;2023-07-13T01:15:50;98147.72;;;12.45;61.94
49178;BME280;35016;55.674;37.468;2023-07-13T01:18:20;98146.63;;;12.46;61.80
49178;BME280;35016;55.674;37.468;2023-07-13T01:20:50;98141.19;;;12.46;61.56
49178;BME280;35016;55.674;37.468;2023-07-13T01:23:17;98143.09;;;12.45;61.90
49178;BME280;35016;55.674;37.468;2023-07-13T01:25:47;98150.16;;;12.46;61.85
49178;BME280;35016;55.674;37.468;2023-07-13T01:28:14;98143.59;;;12.47;62.19
49178;BME280;35016;55.674;37.468;2023-07-13T01:30:43;98139.75;;;12.48;62.05
49178;BME280;35016;55.674;37.468;2023-07-13T01:33:16;98137.03;;;12.48;61.89
49178;BME280;35016;55.674;37.468;2023-07-13T01:35:45;98138.97;;;12.48;62.16
49178;BME280;35016;55.674;37.468;2023-07-13T01:38:16;98131.59;;;12.48;62.17
49178;BME280;35016;55.674;37.468;2023-07-13T01:40:44;98135.94;;;12.49;62.18
49178;BME280;35016;55.674;37.468;2023-07-13T01:43:11;98132.91;;;12.51;61.83
49178;BME280;35016;55.674;37.468;2023-07-13T01:45:38;98132.59;;;12.52;61.67
49178;BME280;35016;55.674;37.468;2023-07-13T01:48:05;98121.41;;;12.54;62.10
49178;BME280;35016;55.674;37.468;2023-07-13T01:50:33;98123.84;;;12.55;62.15
49178;BME280;35016;55.674;37.468;2023-07-13T01:53:01;98120.00;;;12.56;61.90
49178;BME280;35016;55.674;37.468;2023-07-13T01:55:28;98122.41;;;12.58;61.85
49178;BME280;35016;55.674;37.468;2023-07-13T01:57:55;98119.38;;;12.59;61.75
49178;BME280;35016;55.674;37.468;2023-07-13T02:00:22;98121.78;;;12.61;62.00
49178;BME280;35016;55.674;37.468;2023-07-13T02:02:49;98114.94;;;12.63;62.19
49178;BME280;35016;55.674;37.468;2023-07-13T02:05:17;98115.13;;;12.67;61.82
49178;BME280;35016;55.674;37.468;2023-07-13T02:07:44;98112.91;;;12.69;61.84
49178;BME280;35016;55.674;37.468;2023-07-13T02:10:11;98114.19;;;12.71;61.74
49178;BME280;35016;55.674;37.468;2023-07-13T02:12:38;98110.91;;;12.75;61.98
49178;BME280;35016;55.674;37.468;2023-07-13T02:15:05;98115.22;;;12.76;61.94
49178;BME280;35016;55.674;37.468;2023-07-13T02:17:33;98120.03;;;12.79;61.94
49178;BME280;35016;55.674;37.468;2023-07-13T02:20:00;98110.47;;;12.81;61.83
49178;BME280;35016;55.674;37.468;2023-07-13T02:22:29;98114.78;;;12.82;61.99
49178;BME280;35016;55.674;37.468;2023-07-13T02:24:56;98116.88;;;12.85;61.87
49178;BME280;35016;55.674;37.468;2023-07-13T02:27:24;98122.81;;;12.87;61.98
49178;BME280;35016;55.674;37.468;2023-07-13T02:29:51;98127.16;;;12.88;61.98
49178;BME280;35016;55.674;37.468;2023-07-13T02:32:19;98116.28;;;12.88;61.82
49178;BME280;35016;55.674;37.468;2023-07-13T02:34:47;98119.50;;;12.90;61.89
49178;BME280;35016;55.674;37.468;2023-07-13T02:37:14;98115.97;;;12.90;62.03
49178;BME280;35016;55.674;37.468;2023-07-13T02:39:40;98107.19;;;12.93;61.90
49178;BME280;35016;55.674;37.468;2023-07-13T02:42:07;98101.44;;;12.94;61.80
49178;BME280;35016;55.674;37.468;2023-07-13T02:44:36;98103.22;;;12.99;62.03
49178;BME280;35016;55.674;37.468;2023-07-13T02:47:03;98097.19;;;13.02;61.88
49178;BME280;35016;55.674;37.468;2023-07-13T02:49:30;98108.25;;;13.06;61.87
49178;BME280;35016;55.674;37.468;2023-07-13T02:51:57;98105.22;;;13.07;61.79
49178;BME280;35016;55.674;37.468;2023-07-13T02:54:24;98099.47;;;13.09;61.85
49178;BME280;35016;55.674;37.468;2023-07-13T02:56:51;98092.91;;;13.10;61.89
49178;BME280;35016;55.674;37.468;2023-07-13T02:59:18;98095.31;;;13.11;61.93
49178;BME280;35016;55.674;37.468;2023-07-13T03:01:45;98106.69;;;13.13;62.14
49178;BME280;35016;55.674;37.468;2023-07-13T03:04:12;98102.06;;;13.14;62.04
49178;BME280;35016;55.674;37.468;2023-07-13T03:06:40;98100.13;;;13.14;62.14
49178;BME280;35016;55.674;37.468;2023-07-13T03:09:08;98099.81;;;13.16;62.15
49178;BME280;35016;55.674;37.468;2023-07-13T03:11:38;98094.09;;;13.17;62.23
49178;BME280;35016;55.674;37.468;2023-07-13T03:14:16;98089.63;;;13.21;62.37
49178;BME280;35016;55.674;37.468;2023-07-13T03:16:43;98081.66;;;13.25;62.09
49178;BME280;35016;55.674;37.468;2023-07-13T03:19:11;98102.00;;;13.27;62.30
49178;BME280;35016;55.674;37.468;2023-07-13T03:21:38;98085.88;;;13.31;62.29
49178;BME280;35016;55.674;37.468;2023-07-13T03:24:06;98095.81;;;13.36;62.06
49178;BME280;35016;55.674;37.468;2023-07-13T03:26:33;98101.44;;;13.39;62.40
49178;BME280;35016;55.674;37.468;2023-07-13T03:29:01;98108.97;;;13.42;62.45
49178;BME280;35016;55.674;37.468;2023-07-13T03:31:29;98101.78;;;13.46;62.25
49178;BME280;35016;55.674;37.468;2023-07-13T03:33:56;98109.97;;;13.46;62.32
49178;BME280;35016;55.674;37.468;2023-07-13T03:36:29;98104.22;;;13.48;62.33
49178;BME280;35016;55.674;37.468;2023-07-13T03:39:00;98099.25;;;13.50;62.45
49178;BME280;35016;55.674;37.468;2023-07-13T03:41:36;98096.22;;;13.51;62.48
49178;BME280;35016;55.674;37.468;2023-07-13T03:44:04;98098.31;;;13.54;62.38
49178;BME280;35016;55.674;37.468;2023-07-13T03:46:31;98110.69;;;13.60;62.28
49178;BME280;35016;55.674;37.468;2023-07-13T03:48:58;98104.31;;;13.65;62.35
49178;BME280;35016;55.674;37.468;2023-07-13T03:51:25;98115.06;;;13.70;62.38
49178;BME280;35016;55.674;37.468;2023-07-13T03:53:52;98117.16;;;13.73;62.42
49178;BME280;35016;55.674;37.468;2023-07-13T03:56:20;98115.88;;;13.79;62.22
49178;BME280;35016;55.674;37.468;2023-07-13T03:58:48;98106.78;;;13.84;62.52
49178;BME280;35016;55.674;37.468;2023-07-13T04:01:23;98107.13;;;13.91;62.29
49178;BME280;35016;55.674;37.468;2023-07-13T04:03:51;98115.16;;;13.96;62.49
49178;BME280;35016;55.674;37.468;2023-07-13T04:06:22;98122.41;;;14.01;62.22
49178;BME280;35016;55.674;37.468;2023-07-13T04:08:51;98120.00;;;13.99;62.39
49178;BME280;35016;55.674;37.468;2023-07-13T04:11:19;98119.19;;;13.99;62.25
49178;BME280;35016;55.674;37.468;2023-07-13T04:13:46;98117.56;;;13.98;62.45
49178;BME280;35016;55.674;37.468;2023-07-13T04:16:14;98116.47;;;13.99;62.13
49178;BME280;35016;55.674;37.468;2023-07-13T04:18:41;98118.38;;;13.98;62.39
49178;BME280;35016;55.674;37.468;2023-07-13T04:21:08;98129.44;;;14.02;62.54
49178;BME280;35016;55.674;37.468;2023-07-13T04:23:36;98117.91;;;14.05;62.28
49178;BME280;35016;55.674;37.468;2023-07-13T04:26:03;98120.81;;;14.08;62.14
49178;BME280;35016;55.674;37.468;2023-07-13T04:28:31;98117.75;;;14.10;62.27
49178;BME280;35016;55.674;37.468;2023-07-13T04:30:58;98113.59;;;14.12;62.22
49178;BME280;35016;55.674;37.468;2023-07-13T04:33:25;98106.41;;;14.16;62.20
49178;BME280;35016;55.674;37.468;2023-07-13T04:35:53;98103.22;;;14.23;62.19
49178;BME280;35016;55.674;37.468;2023-07-13T04:38:23;98097.63;;;14.28;62.14
49178;BME280;35016;55.674;37.468;2023-07-13T04:40:51;98112.69;;;14.34;62.30
49178;BME280;35016;55.674;37.468;2023-07-13T04:43:18;98104.03;;;14.41;62.07
49178;BME280;35016;55.674;37.468;2023-07-13T04:45:45;98105.72;;;14.50;61.88
49178;BME280;35016;55.674;37.468;2023-07-13T04:48:12;98098.81;;;14.62;62.03
49178;BME280;35016;55.674;37.468;2023-07-13T04:50:39;98109.88;;;14.74;61.78
49178;BME280;35016;55.674;37.468;2023-07-13T04:53:06;98112.00;;;14.85;61.73
49178;BME280;35016;55.674;37.468;2023-07-13T04:55:33;98118.72;;;14.97;61.66
49178;BME280;35016;55.674;37.468;2023-07-13T04:58:01;98105.88;;;15.06;61.70
49178;BME280;35016;55.674;37.468;2023-07-13T05:00:29;98113.75;;;15.16;61.73
49178;BME280;35016;55.674;37.468;2023-07-13T05:02:56;98115.31;;;15.26;61.85
49178;BME280;35016;55.674;37.468;2023-07-13T05:05:26;98111.63;;;15.39;61.77
49178;BME280;35016;55.674;37.468;2023-07-13T05:07:53;98107.53;;;15.54;61.41
49178;BME280;35016;55.674;37.468;2023-07-13T05:10:21;98109.00;;;15.60;61.41
49178;BME280;35016;55.674;37.468;2023-07-13T05:12:48;98122.03;;;15.63;61.22
49178;BME280;35016;55.674;37.468;2023-07-13T05:15:15;98118.00;;;15.69;61.47
49178;BME280;35016;55.674;37.468;2023-07-13T05:17:42;98109.47;;;15.70;61.31
49178;BME280;35016;55.674;37.468;2023-07-13T05:20:09;98109.94;;;15.72;61.63
49178;BME280;35016;55.674;37.468;2023-07-13T05:22:54;98103.00;;;15.75;61.58
49178;BME280;35016;55.674;37.468;2023-07-13T05:25:21;98111.69;;;15.77;61.35
49178;BME280;35016;55.674;37.468;2023-07-13T05:27:50;98110.69;;;15.82;61.55
49178;BME280;35016;55.674;37.468;2023-07-13T05:30:20;98110.03;;;15.85;61.51
49178;BME280;35016;55.674;37.468;2023-07-13T05:32:47;98117.44;;;15.93;61.60
49178;BME280;35016;55.674;37.468;2023-07-13T05:35:14;98111.13;;;16.01;61.31
49178;BME280;35016;55.674;37.468;2023-07-13T05:37:41;98115.84;;;16.21;61.08
49178;BME280;35016;55.674;37.468;2023-07-13T05:40:08;98112.66;;;16.40;61.22
49178;BME280;35016;55.674;37.468;2023-07-13T05:42:35;98114.63;;;16.60;60.90
49178;BME280;35016;55.674;37.468;2023-07-13T05:45:02;98113.53;;;16.82;60.81
49178;BME280;35016;55.674;37.468;2023-07-13T05:47:29;98106.75;;;17.00;60.49
49178;BME280;35016;55.674;37.468;2023-07-13T05:49:56;98115.38;;;17.11;60.37
49178;BME280;35016;55.674;37.468;2023-07-13T05:52:23;98106.16;;;17.16;60.03
49178;BME280;35016;55.674;37.468;2023-07-13T05:54:50;98097.72;;;17.21;60.36
49178;BME280;35016;55.674;37.468;2023-07-13T05:57:17;98105.84;;;17.29;60.31
49178;BME280;35016;55.674;37.468;2023-07-13T05:59:44;98104.66;;;17.39;60.27
49178;BME280;35016;55.674;37.468;2023-07-13T06:02:11;98107.06;;;17.53;60.11
49178;BME280;35016;55.674;37.468;2023-07-13T06:04:40;98104.53;;;17.69;60.12
49178;BME280;35016;55.674;37.468;2023-07-13T06:07:07;98110.81;;;17.81;59.89
49178;BME280;35016;55.674;37.468;2023-07-13T06:09:34;98107.59;;;17.91;59.85
49178;BME280;35016;55.674;37.468;2023-07-13T06:12:00;98105.81;;;17.95;59.84
49178;BME280;35016;55.674;37.468;2023-07-13T06:14:27;98095.19;;;17.94;59.69
49178;BME280;35016;55.674;37.468;2023-07-13T06:16:54;98094.84;;;17.95;59.67
49178;BME280;35016;55.674;37.468;2023-07-13T06:19:21;98092.22;;;17.99;59.67
49178;BME280;35016;55.674;37.468;2023-07-13T06:21:48;98096.66;;;18.04;59.75
49178;BME280;35016;55.674;37.468;2023-07-13T06:24:15;98097.91;;;18.06;59.48
49178;BME280;35016;55.674;37.468;2023-07-13T06:26:42;98092.19;;;18.11;59.35
49178;BME280;35016;55.674;37.468;2023-07-13T06:29:09;98095.97;;;18.19;59.21
49178;BME280;35016;55.674;37.468;2023-07-13T06:31:36;98079.28;;;18.24;59.17
49178;BME280;35016;55.674;37.468;2023-07-13T06:34:03;98084.66;;;18.33;59.16
49178;BME280;35016;55.674;37.468;2023-07-13T06:36:29;98087.00;;;18.46;59.11
49178;BME280;35016;55.674;37.468;2023-07-13T06:38:56;98080.97;;;18.53;58.86
49178;BME280;35016;55.674;37.468;2023-07-13T06:41:23;98084.72;;;18.61;58.75
49178;BME280;35016;55.674;37.468;2023-07-13T06:43:52;98085.94;;;18.75;58.74
49178;BME280;35016;55.674;37.468;2023-07-13T06:46:21;98075.66;;;18.84;58.54
49178;BME280;35016;55.674;37.468;2023-07-13T06:48:48;98080.44;;;18.87;58.52
49178;BME280;35016;55.674;37.468;2023-07-13T06:51:15;98087.34;;;18.81;58.57
49178;BME280;35016;55.674;37.468;2023-07-13T06:53:42;98098.53;;;18.76;58.64
49178;BME280;35016;55.674;37.468;2023-07-13T06:56:10;98086.91;;;18.67;58.66
49178;BME280;35016;55.674;37.468;2023-07-13T06:58:37;98089.66;;;18.67;58.71
49178;BME280;35016;55.674;37.468;2023-07-13T07:01:04;98094.09;;;18.72;58.64
49178;BME280;35016;55.674;37.468;2023-07-13T07:03:34;98093.41;;;18.75;58.55
49178;BME280;35016;55.674;37.468;2023-07-13T07:06:12;98096.94;;;18.75;58.39
49178;BME280;35016;55.674;37.468;2023-07-13T07:08:40;98092.97;;;18.61;58.31
49178;BME280;35016;55.674;37.468;2023-07-13T07:11:11;98081.63;;;18.50;58.42
49178;BME280;35016;55.674;37.468;2023-07-13T07:13:39;98087.13;;;18.50;58.51
49178;BME280;35016;55.674;37.468;2023-07-13T07:16:06;98091.59;;;18.54;58.35
49178;BME280;35016;55.674;37.468;2023-07-13T07:18:33;98085.41;;;18.57;58.44
49178;BME280;35016;55.674;37.468;2023-07-13T07:21:00;98080.38;;;18.60;58.36
49178;BME280;35016;55.674;37.468;2023-07-13T07:23:27;98085.88;;;18.60;58.25
49178;BME280;35016;55.674;37.468;2023-07-13T07:25:54;98088.84;;;18.54;58.26
49178;BME280;35016;55.674;37.468;2023-07-13T07:28:21;98099.72;;;18.51;58.25
49178;BME280;35016;55.674;37.468;2023-07-13T07:30:52;98096.84;;;18.47;58.08
49178;BME280;35016;55.674;37.468;2023-07-13T07:33:22;98090.34;;;18.40;58.05
49178;BME280;35016;55.674;37.468;2023-07-13T07:35:49;98096.53;;;18.37;58.17
49178;BME280;35016;55.674;37.468;2023-07-13T07:38:19;98082.25;;;18.31;58.11
49178;BME280;35016;55.674;37.468;2023-07-13T07:40:50;98096.31;;;18.30;58.14
49178;BME280;35016;55.674;37.468;2023-07-13T07:43:20;98102.16;;;18.28;58.02
49178;BME280;35016;55.674;37.468;2023-07-13T07:45:47;98109.94;;;18.26;57.91
49178;BME280;35016;55.674;37.468;2023-07-13T07:48:14;98111.75;;;18.22;57.82
49178;BME280;35016;55.674;37.468;2023-07-13T07:50:41;98108.44;;;18.16;57.85
49178;BME280;35016;55.674;37.468;2023-07-13T07:53:08;98114.16;;;18.11;57.95
49178;BME280;35016;55.674;37.468;2023-07-13T07:55:37;98115.19;;;18.07;57.77
49178;BME280;35016;55.674;37.468;2023-07-13T07:58:06;98118.97;;;18.02;57.78
49178;BME280;35016;55.674;37.468;2023-07-13T08:00:54;98108.31;;;18.01;57.73
49178;BME280;35016;55.674;37.468;2023-07-13T08:03:23;98113.47;;;18.02;57.74
49178;BME280;35016;55.674;37.468;2023-07-13T08:05:53;98101.94;;;17.97;57.66
49178;BME280;35016;55.674;37.468;2023-07-13T08:08:23;98114.69;;;17.92;57.67
49178;BME280;35016;55.674;37.468;2023-07-13T08:10:50;98112.63;;;17.89;57.57
49178;BME280;35016;55.674;37.468;2023-07-13T08:13:21;98122.94;;;17.92;57.47
49178;BME280;35016;55.674;37.468;2023-07-13T08:15:48;98120.44;;;18.00;57.42
49178;BME280;35016;55.674;37.468;2023-07-13T08:18:19;98116.22;;;18.02;57.33
49178;BME280;35016;55.674;37.468;2023-07-13T08:20:45;98118.59;;;17.91;57.49
49178;BME280;35016;55.674;37.468;2023-07-13T08:23:12;98105.91;;;17.75;57.62
49178;BME280;35016;55.674;37.468;2023-07-13T08:25:39;98115.81;;;17.67;57.65
49178;BME280;35016;55.674;37.468;2023-07-13T08:28:06;98122.63;;;17.61;57.78
49178;BME280;35016;55.674;37.468;2023-07-13T08:30:33;98121.69;;;17.57;57.83
49178;BME280;35016;55.674;37.468;2023-07-13T08:33:00;98109.00;;;17.52;58.05
49178;BME280;35016;55.674;37.468;2023-07-13T08:35:27;98122.13;;;17.47;58.22
49178;BME280;35016;55.674;37.468;2023-07-13T08:37:54;98128.50;;;17.39;58.24
49178;BME280;35016;55.674;37.468;2023-07-13T08:40:24;98107.34;;;17.27;58.41
49178;BME280;35016;55.674;37.468;2023-07-13T08:42:53;98108.22;;;17.19;58.39
49178;BME280;35016;55.674;37.468;2023-07-13T08:45:29;98105.81;;;17.17;58.75
49178;BME280;35016;55.674;37.468;2023-07-13T08:48:02;98122.72;;;17.19;58.73
49178;BME280;35016;55.674;37.468;2023-07-13T08:50:32;98119.66;;;17.21;59.06
49178;BME280;35016;55.674;37.468;2023-07-13T08:53:19;98123.97;;;17.22;58.94
49178;BME280;35016;55.674;37.468;2023-07-13T08:55:48;98120.78;;;17.20;59.07
49178;BME280;35016;55.674;37.468;2023-07-13T08:58:19;98131.16;;;17.14;59.07
49178;BME280;35016;55.674;37.468;2023-07-13T09:00:48;98127.81;;;17.09;59.13
49178;BME280;35016;55.674;37.468;2023-07-13T09:03:20;98119.31;;;17.01;59.29
49178;BME280;35016;55.674;37.468;2023-07-13T09:05:51;98126.34;;;16.90;59.64
49178;BME280;35016;55.674;37.468;2023-07-13T09:11:13;98129.22;;;16.73;59.99
49178;BME280;35016;55.674;37.468;2023-07-13T09:16:16;98132.63;;;16.70;60.04
49178;BME280;35016;55.674;37.468;2023-07-13T09:18:45;98134.88;;;16.68;59.88
49178;BME280;35016;55.674;37.468;2023-07-13T09:21:14;98139.06;;;16.65;59.79
49178;BME280;35016;55.674;37.468;2023-07-13T09:23:42;98148.28;;;16.61;60.08
49178;BME280;35016;55.674;37.468;2023-07-13T09:28:38;98150.53;;;16.59;60.48
49178;BME280;35016;55.674;37.468;2023-07-13T09:33:42;98155.41;;;16.53;60.66
49178;BME280;35016;55.674;37.468;2023-07-13T09:36:17;98155.59;;;16.48;60.55
49178;BME280;35016;55.674;37.468;2023-07-13T09:38:45;98146.63;;;16.39;60.61
49178;BME280;35016;55.674;37.468;2023-07-13T09:44:16;98156.41;;;16.19;60.97
49178;BME280;35016;55.674;37.468;2023-07-13T09:46:45;98154.97;;;16.13;60.95
49178;BME280;35016;55.674;37.468;2023-07-13T09:49:12;98154.03;;;16.09;61.49
49178;BME280;35016;55.674;37.468;2023-07-13T09:51:42;98153.53;;;16.07;61.21
49178;BME280;35016;55.674;37.468;2023-07-13T09:54:28;98148.59;;;16.00;61.71
49178;BME280;35016;55.674;37.468;2023-07-13T09:56:56;98156.19;;;15.95;61.95
49178;BME280;35016;55.674;37.468;2023-07-13T09:59:26;98161.00;;;15.89;61.52
49178;BME280;35016;55.674;37.468;2023-07-13T10:01:53;98158.63;;;15.79;61.96
49178;BME280;35016;55.674;37.468;2023-07-13T10:04:27;98155.94;;;15.70;62.11
49178;BME280;35016;55.674;37.468;2023-07-13T10:07:04;98147.75;;;15.62;62.22
49178;BME280;35016;55.674;37.468;2023-07-13T10:09:52;98149.66;;;15.53;61.91
49178;BME280;35016;55.674;37.468;2023-07-13T10:12:21;98148.56;;;15.45;62.09
49178;BME280;35016;55.674;37.468;2023-07-13T10:14:51;98148.59;;;15.36;62.24
49178;BME280;35016;55.674;37.468;2023-07-13T10:17:31;98155.31;;;15.30;62.73
49178;BME280;35016;55.674;37.468;2023-07-13T10:20:02;98153.56;;;15.26;62.64
49178;BME280;35016;55.674;37.468;2023-07-13T10:22:36;98150.19;;;15.20;62.64
49178;BME280;35016;55.674;37.468;2023-07-13T10:25:13;98151.66;;;15.17;63.09
49178;BME280;35016;55.674;37.468;2023-07-13T10:27:41;98158.22;;;15.16;62.92
49178;BME280;35016;55.674;37.468;2023-07-13T10:32:35;98158.06;;;15.13;62.70
49178;BME280;35016;55.674;37.468;2023-07-13T10:35:02;98145.53;;;15.12;62.86
49178;BME280;35016;55.674;37.468;2023-07-13T10:37:31;98152.13;;;15.11;63.08
49178;BME280;35016;55.674;37.468;2023-07-13T10:40:03;98150.84;;;15.08;63.24
49178;BME280;35016;55.674;37.468;2023-07-13T10:42:33;98164.50;;;15.08;63.18
49178;BME280;35016;55.674;37.468;2023-07-13T10:45:02;98157.44;;;15.07;63.45
49178;BME280;35016;55.674;37.468;2023-07-13T10:47:29;98164.03;;;15.06;63.36
49178;BME280;35016;55.674;37.468;2023-07-13T10:49:57;98165.63;;;15.07;63.64
49178;BME280;35016;55.674;37.468;2023-07-13T10:52:42;98173.50;;;15.09;63.61
49178;BME280;35016;55.674;37.468;2023-07-13T10:57:59;98173.03;;;15.07;63.52
49178;BME280;35016;55.674;37.468;2023-07-13T11:00:26;98172.53;;;15.05;63.52
49178;BME280;35016;55.674;37.468;2023-07-13T11:03:00;98169.94;;;15.00;63.62
49178;BME280;35016;55.674;37.468;2023-07-13T11:05:30;98184.56;;;14.95;63.83
49178;BME280;35016;55.674;37.468;2023-07-13T11:08:13;98178.63;;;14.93;63.83
49178;BME280;35016;55.674;37.468;2023-07-13T11:21:25;98172.19;;;14.89;64.28
49178;BME280;35016;55.674;37.468;2023-07-13T11:24:12;98164.81;;;14.90;64.35
49178;BME280;35016;55.674;37.468;2023-07-13T11:29:36;98145.88;;;14.93;64.28
49178;BME280;35016;55.674;37.468;2023-07-13T11:32:00;98145.88;;;14.93;64.39
49178;BME280;35016;55.674;37.468;2023-07-13T11:34:35;98147.16;;;14.96;64.16
49178;BME280;35016;55.674;37.468;2023-07-13T11:37:03;98154.69;;;14.99;64.34
49178;BME280;35016;55.674;37.468;2023-07-13T11:39:33;98151.97;;;14.99;64.16
49178;BME280;35016;55.674;37.468;2023-07-13T11:42:02;98136.84;;;15.01;64.22
49178;BME280;35016;55.674;37.468;2023-07-13T11:44:32;98134.59;;;15.03;64.28
49178;BME280;35016;55.674;37.468;2023-07-13T11:47:01;98136.41;;;15.08;64.45
49178;BME280;35016;55.674;37.468;2023-07-13T11:49:48;98149.88;;;15.13;64.43
49178;BME280;35016;55.674;37.468;2023-07-13T11:52:20;98147.78;;;15.18;64.54
49178;BME280;35016;55.674;37.468;2023-07-13T11:54:49;98155.31;;;15.22;64.52
49178;BME280;35016;55.674;37.468;2023-07-13T11:59:53;98157.75;;;15.23;64.50
49178;BME280;35016;55.674;37.468;2023-07-13T12:04:50;98151.00;;;15.21;64.52
49178;BME280;35016;55.674;37.468;2023-07-13T12:07:19;98158.72;;;15.18;64.64
49178;BME280;35016;55.674;37.468;2023-07-13T12:09:46;98154.22;;;15.14;64.63
49178;BME280;35016;55.674;37.468;2023-07-13T12:12:13;98152.94;;;15.11;64.70
49178;BME280;35016;55.674;37.468;2023-07-13T12:14:40;98148.59;;;15.10;65.18
49178;BME280;35016;55.674;37.468;2023-07-13T12:17:09;98157.59;;;15.11;65.02
49178;BME280;35016;55.674;37.468;2023-07-13T12:19:38;98155.66;;;15.11;65.06
49178;BME280;35016;55.674;37.468;2023-07-13T12:22:08;98151.81;;;15.12;65.00
49178;BME280;35016;55.674;37.468;2023-07-13T12:24:36;98157.28;;;15.12;64.97
49178;BME280;35016;55.674;37.468;2023-07-13T12:27:03;98154.53;;;15.12;65.17
49178;BME280;35016;55.674;37.468;2023-07-13T12:29:32;98147.81;;;15.10;64.94
49178;BME280;35016;55.674;37.468;2023-07-13T12:31:59;98136.72;;;15.06;65.23
49178;BME280;35016;55.674;37.468;2023-07-13T12:34:26;98145.53;;;15.03;65.24
49178;BME280;35016;55.674;37.468;2023-07-13T12:42:08;98144.91;;;14.98;65.48
49178;BME280;35016;55.674;37.468;2023-07-13T12:44:40;98126.91;;;14.97;65.43
49178;BME280;35016;55.674;37.468;2023-07-13T12:47:09;98134.28;;;14.96;65.33
49178;BME280;35016;55.674;37.468;2023-07-13T12:49:43;98132.69;;;14.95;65.50
49178;BME280;35016;55.674;37.468;2023-07-13T12:52:14;98135.25;;;14.92;65.38
49178;BME280;35016;55.674;37.468;2023-07-13T12:54:41;98128.53;;;14.89;65.48
49178;BME280;35016;55.674;37.468;2023-07-13T12:57:21;98127.25;;;14.86;65.61
49178;BME280;35016;55.674;37.468;2023-07-13T12:59:51;98152.13;;;14.85;65.71
49178;BME280;35016;55.674;37.468;2023-07-13T13:02:32;98143.78;;;14.81;65.96
49178;BME280;35016;55.674;37.468;2023-07-13T13:05:01;98151.16;;;14.81;66.14
49178;BME280;35016;55.674;37.468;2023-07-13T13:07:31;98152.78;;;14.82;65.65
49178;BME280;35016;55.674;37.468;2023-07-13T13:09:57;98152.78;;;14.82;65.86
49178;BME280;35016;55.674;37.468;2023-07-13T13:12:25;98153.91;;;14.81;66.02
49178;BME280;35016;55.674;37.468;2023-07-13T13:14:53;98151.81;;;14.78;65.78
49178;BME280;35016;55.674;37.468;2023-07-13T13:17:23;98146.16;;;14.74;65.77
49178;BME280;35016;55.674;37.468;2023-07-13T13:19:52;98158.53;;;14.72;65.89
49178;BME280;35016;55.674;37.468;2023-07-13T13:22:21;98151.47;;;14.71;65.94
49178;BME280;35016;55.674;37.468;2023-07-13T13:24:48;98132.69;;;14.69;65.84
49178;BME280;35016;55.674;37.468;2023-07-13T13:27:16;98141.66;;;14.70;65.71
49178;BME280;35016;55.674;37.468;2023-07-13T13:29:44;98145.84;;;14.67;65.99
49178;BME280;35016;55.674;37.468;2023-07-13T13:32:12;98134.94;;;14.67;66.02
49178;BME280;35016;55.674;37.468;2023-07-13T13:34:39;98140.06;;;14.69;65.94
49178;BME280;35016;55.674;37.468;2023-07-13T13:37:15;98131.88;;;14.69;66.01
49178;BME280;35016;55.674;37.468;2023-07-13T13:39:43;98125.44;;;14.65;66.10
49178;BME280;35016;55.674;37.468;2023-07-13T13:42:28;98131.22;;;14.63;66.18